Time;durP1;ratioP1;P1;durP2;ratioP2;P2;SDS_P1;SDS_P2;PMS_P1;PMS_P2;Temp;Humidity;BMP_temperature;BMP_pressure;BME280_temperature;BME280_humidity;BME280_pressure;Samples;Min_cycle;Max_cycle;Signal;HPM_P1;HPM_P2
2023/07/04 00:00:12;;;;;;;9.23;4.75;;;;;;;22.75;58.43;95237.66;5139434;27;20027;-78
2023/07/04 00:02:39;;;;;;;8.25;4.65;;;;;;;22.76;58.03;95215.69;5139598;27;20035;-78
2023/07/04 00:05:05;;;;;;;10.90;4.95;;;;;;;23.01;57.25;95211.66;5132584;27;20023;-78
2023/07/04 00:07:31;;;;;;;6.88;4.38;;;;;;;23.29;57.00;95238.56;5131622;27;20033;-78
2023/07/04 00:09:59;;;;;;;7.68;4.50;;;;;;;23.28;57.32;95238.91;5147387;27;20034;-78
2023/07/04 00:12:30;;;;;;;8.80;4.53;;;;;;;23.23;57.62;95228.38;5152195;27;20023;-78
2023/07/04 00:14:55;;;;;;;;;;;;;;;23.24;57.48;95232.66;5134480;27;20473;-78
2023/07/04 00:17:21;;;;;;;8.98;4.60;;;;;;;23.28;57.16;95214.56;5115301;27;19952;-78
2023/07/04 00:19:48;;;;;;;8.60;4.50;;;;;;;23.34;56.97;95221.28;5123797;28;20049;-78
2023/07/04 00:22:13;;;;;;;4.78;3.88;;;;;;;23.17;57.44;95197.34;5149713;27;20362;-78
2023/07/04 00:24:40;;;;;;;8.25;4.38;;;;;;;22.86;58.18;95193.53;5144194;27;20031;-78
2023/07/04 00:27:06;;;;;;;6.88;4.60;;;;;;;22.82;58.86;95214.28;5154716;27;20019;-78
2023/07/04 00:29:32;;;;;;;6.68;4.95;;;;;;;22.59;58.96;95175.47;5138221;27;20099;-78
2023/07/04 00:31:58;;;;;;;6.70;4.80;;;;;;;22.73;59.97;95237.22;5138034;27;20125;-78
2023/07/04 00:34:24;;;;;;;9.02;4.05;;;;;;;22.53;60.18;95212.78;5137326;27;20026;-78
2023/07/04 00:36:50;;;;;;;8.25;4.68;;;;;;;22.69;60.04;95218.19;5137976;27;20030;-78
2023/07/04 00:39:16;;;;;;;6.03;4.60;;;;;;;22.86;60.13;95234.09;5156260;27;20122;-78
2023/07/04 00:41:42;;;;;;;4.90;4.05;;;;;;;22.69;59.37;95194.66;5156159;27;20043;-78
2023/07/04 00:44:22;;;;;;;9.38;4.80;;;;;;;22.71;60.17;95205.91;5156495;27;20034;-79
2023/07/04 00:47:04;;;;;;;6.15;4.22;;;;;;;22.97;59.57;95237.03;5155837;27;20038;-78
2023/07/04 00:49:41;;;;;;;6.35;4.32;;;;;;;22.96;59.41;95227.38;5134311;27;20164;-78
2023/07/04 00:52:11;;;;;;;7.28;4.32;;;;;;;22.74;59.91;95211.75;5135640;27;20031;-78
2023/07/04 00:54:47;;;;;;;6.18;4.22;;;;;;;22.57;60.41;95205.56;5133906;27;20031;-78
2023/07/04 00:57:14;;;;;;;7.72;4.40;;;;;;;22.89;60.05;95229.91;5134244;27;20039;-78
2023/07/04 00:59:44;;;;;;;8.07;4.07;;;;;;;22.81;59.89;95218.13;5133972;27;20400;-78
2023/07/04 01:02:12;;;;;;;5.70;4.07;;;;;;;22.82;59.66;95205.41;5135610;27;20027;-78
2023/07/04 01:04:38;;;;;;;7.38;4.55;;;;;;;22.86;59.55;95195.47;5133353;27;20035;-78
2023/07/04 01:07:36;;;;;;;10.48;4.40;;;;;;;23.09;59.42;95231.56;5133700;27;20030;-78
2023/07/04 01:10:10;;;;;;;7.50;4.18;;;;;;;22.98;59.64;95225.88;5133550;27;20428;-78
2023/07/04 01:12:37;;;;;;;8.90;4.20;;;;;;;22.83;60.11;95223.19;5129927;27;20058;-78
2023/07/04 01:15:03;;;;;;;10.07;4.25;;;;;;;22.84;60.22;95232.88;5123251;27;20023;-78
2023/07/04 01:17:30;;;;;;;9.50;4.95;;;;;;;22.68;60.83;95222.81;5145978;27;20362;-78
2023/07/04 01:19:56;;;;;;;8.52;4.90;;;;;;;22.65;60.25;95218.13;5155615;27;20068;-78
2023/07/04 01:22:31;;;;;;;7.22;4.07;;;;;;;22.65;60.54;95212.72;5155996;27;20030;-78
2023/07/04 01:25:05;;;;;;;8.43;4.50;;;;;;;22.77;60.76;95236.19;5119404;27;20136;-78
2023/07/04 01:27:31;;;;;;;6.63;4.70;;;;;;;22.62;60.70;95215.31;5127759;27;20037;-77
2023/07/04 01:30:02;;;;;;;9.32;4.65;;;;;;;22.65;61.07;95230.84;5136194;27;20038;-78
2023/07/04 01:32:28;;;;;;;7.05;4.45;;;;;;;22.46;61.63;95223.41;5136333;27;20019;-78
2023/07/04 01:34:58;;;;;;;8.25;4.72;;;;;;;22.49;61.69;95228.16;5154796;27;20041;-79
2023/07/04 01:37:24;;;;;;;7.88;5.00;;;;;;;22.33;61.84;95213.81;5136220;27;20027;-78
2023/07/04 01:39:50;;;;;;;5.55;4.35;;;;;;;22.18;62.04;95191.06;5155164;27;20030;-78
2023/07/04 01:42:17;;;;;;;6.82;4.85;;;;;;;22.29;62.17;95219.13;5136237;27;20458;-78
2023/07/04 01:44:43;;;;;;;9.82;4.80;;;;;;;22.24;62.64;95216.69;5154829;27;20030;-78
2023/07/04 01:47:08;;;;;;;8.02;5.00;;;;;;;22.16;62.56;95209.53;5154983;27;20580;-78
2023/07/04 01:49:34;;;;;;;11.52;4.97;;;;;;;21.75;62.71;95154.00;5136447;27;20117;-78
2023/07/04 01:51:59;;;;;;;6.03;4.28;;;;;;;22.08;62.98;95209.69;5132480;27;20063;-78
2023/07/04 01:54:25;;;;;;;10.05;4.60;;;;;;;22.09;63.01;95209.34;5134684;27;20425;-78
2023/07/04 01:56:52;;;;;;;9.00;4.82;;;;;;;22.16;63.09;95227.66;5132258;27;20045;-80
2023/07/04 01:59:19;;;;;;;8.90;5.00;;;;;;;22.02;63.00;95209.16;5151486;27;20033;-80
2023/07/04 02:01:44;;;;;;;14.68;5.55;;;;;;;22.08;62.64;95207.75;5154477;27;20035;-81
2023/07/04 02:04:11;;;;;;;13.98;5.35;;;;;;;22.09;62.54;95209.34;5153869;27;20075;-80
2023/07/04 02:06:36;;;;;;;7.55;5.03;;;;;;;21.76;62.85;95165.59;5153766;27;20445;-81
2023/07/04 02:09:02;;;;;;;7.55;5.40;;;;;;;22.01;62.62;95204.09;5135013;27;20235;-81
2023/07/04 02:11:28;;;;;;;8.00;5.20;;;;;;;21.96;62.51;95205.09;5152365;27;20499;-81
2023/07/04 02:13:53;;;;;;;10.13;5.82;;;;;;;22.17;62.43;95248.91;5147327;27;20146;-81
2023/07/04 02:16:18;;;;;;;7.82;5.35;;;;;;;22.13;62.74;95241.84;5134610;27;20022;-81
2023/07/04 02:18:44;;;;;;;11.07;5.38;;;;;;;22.13;62.90;95237.22;5135106;27;20027;-81
2023/07/04 02:21:09;;;;;;;12.75;5.95;;;;;;;22.10;63.03;95237.94;5135095;27;20031;-81
2023/07/04 02:23:35;;;;;;;8.00;5.18;;;;;;;21.92;62.92;95220.41;5135307;27;20372;-81
2023/07/04 02:26:00;;;;;;;13.50;6.10;;;;;;;22.08;63.15;95248.28;5153337;27;20034;-81
2023/07/04 02:28:25;;;;;;;11.95;5.65;;;;;;;21.14;63.14;95104.84;5134645;27;20026;-81
2023/07/04 02:30:59;;;;;;;15.88;5.78;;;;;;;21.74;63.23;95194.84;5135146;27;20030;-81
2023/07/04 02:33:25;;;;;;;9.55;5.78;;;;;;;21.86;63.43;95217.19;5153383;27;20037;-81
2023/07/04 02:35:51;;;;;;;8.82;5.93;;;;;;;21.98;63.34;95232.56;5134777;27;20030;-81
2023/07/04 02:38:18;;;;;;;8.10;5.47;;;;;;;21.80;63.49;95220.47;5153059;27;20520;-81
2023/07/04 02:40:46;;;;;;;13.45;5.30;;;;;;;21.85;63.71;95220.22;5134665;27;20508;-81
2023/07/04 02:43:12;;;;;;;9.68;5.80;;;;;;;21.63;63.66;95193.75;5134381;27;20045;-80
2023/07/04 02:45:39;;;;;;;12.07;5.05;;;;;;;21.79;63.97;95218.91;5133938;27;20512;-81
2023/07/04 02:48:05;;;;;;;11.52;5.18;;;;;;;21.79;63.96;95221.59;5148125;27;20564;-81
2023/07/04 02:50:31;;;;;;;15.70;5.28;;;;;;;21.57;64.12;95193.22;5152586;27;20022;-81
2023/07/04 02:52:56;;;;;;;8.68;4.70;;;;;;;21.71;64.23;95217.91;5134229;27;20023;-81
2023/07/04 02:55:21;;;;;;;11.85;6.00;;;;;;;21.78;64.38;95236.22;5153549;27;20027;-81
2023/07/04 02:57:47;;;;;;;12.27;5.55;;;;;;;21.67;64.20;95218.91;5152934;27;20564;-81
2023/07/04 03:00:13;;;;;;;15.07;6.78;;;;;;;21.43;64.24;95188.22;5152792;27;20026;-81
2023/07/04 03:02:38;;;;;;;10.35;5.57;;;;;;;21.69;64.04;95233.66;5134454;27;20420;-81
2023/07/04 03:05:04;;;;;;;9.40;5.45;;;;;;;21.63;63.76;95232.31;5134013;27;20117;-81
2023/07/04 03:07:29;;;;;;;8.27;5.45;;;;;;;21.62;63.75;95232.66;5133807;27;20095;-81
2023/07/04 03:09:55;;;;;;;6.80;5.28;;;;;;;21.55;63.84;95225.16;5152463;27;20037;-81
2023/07/04 03:12:20;;;;;;;8.30;5.60;;;;;;;21.51;64.05;95226.97;5133838;27;20030;-81
2023/07/04 03:14:46;;;;;;;8.65;5.97;;;;;;;21.49;63.68;95215.72;5152740;27;20059;-81
2023/07/04 03:17:11;;;;;;;9.35;5.68;;;;;;;21.54;63.66;95216.28;5134012;27;20110;-81
2023/07/04 03:19:36;;;;;;;8.50;5.80;;;;;;;21.59;63.33;95227.97;5133705;27;20436;-81
2023/07/04 03:22:02;;;;;;;9.75;6.50;;;;;;;21.54;63.35;95220.88;5117009;27;20037;-81
2023/07/04 03:24:27;;;;;;;9.35;6.78;;;;;;;21.49;63.20;95213.81;5134542;27;20408;-81
2023/07/04 03:26:53;;;;;;;10.70;6.63;;;;;;;21.52;63.18;95223.91;5134324;27;20042;-81
2023/07/04 03:29:18;;;;;;;9.75;6.68;;;;;;;21.40;63.02;95196.97;5151777;27;20030;-81
2023/07/04 03:31:44;;;;;;;13.30;6.95;;;;;;;21.36;62.89;95196.06;5133877;27;20450;-81
2023/07/04 03:34:09;;;;;;;10.85;5.63;;;;;;;21.61;62.90;95234.56;5134198;27;20037;-81
2023/07/04 03:36:35;;;;;;;10.82;6.63;;;;;;;21.49;63.27;95213.03;5134109;27;20022;-81
2023/07/04 03:39:00;;;;;;;16.77;6.70;;;;;;;21.63;63.19;95242.34;5152260;27;20023;-81
2023/07/04 03:41:26;;;;;;;13.77;6.53;;;;;;;21.72;63.12;95241.06;5133986;27;20031;-81
2023/07/04 03:43:51;;;;;;;14.27;6.80;;;;;;;21.64;63.09;95227.72;5133929;27;20038;-81
2023/07/04 03:46:17;;;;;;;10.20;6.78;;;;;;;21.59;63.13;95217.94;5152912;27;20025;-81
2023/07/04 03:48:42;;;;;;;10.35;7.40;;;;;;;21.58;62.97;95218.28;5130564;28;20031;-81
2023/07/04 03:51:09;;;;;;;11.95;6.78;;;;;;;21.60;63.20;95237.59;5148630;27;20031;-81
2023/07/04 03:53:37;;;;;;;15.77;7.35;;;;;;;21.60;63.45;95234.91;5152502;27;20065;-81
2023/07/04 03:56:04;;;;;;;15.88;7.28;;;;;;;21.33;63.51;95198.69;5133590;27;20041;-81
2023/07/04 03:58:29;;;;;;;13.60;7.30;;;;;;;21.55;63.77;95239.44;5133675;27;20027;-82
2023/07/04 04:00:55;;;;;;;10.60;7.07;;;;;;;21.60;64.00;95259.19;5134681;27;20051;-81
2023/07/04 04:03:21;;;;;;;10.70;7.55;;;;;;;21.37;63.98;95216.53;5156502;27;20031;-81
2023/07/04 04:05:46;;;;;;;17.83;7.03;;;;;;;21.36;63.80;95214.97;5137303;27;20030;-81
2023/07/04 04:08:12;;;;;;;15.60;7.95;;;;;;;21.48;63.96;95235.75;5137439;27;20480;-80
2023/07/04 04:10:38;;;;;;;21.08;8.27;;;;;;;21.29;63.86;95203.97;5155687;27;20054;-80
2023/07/04 04:13:03;;;;;;;12.43;7.88;;;;;;;21.67;63.95;95260.19;5156018;27;20504;-81
2023/07/04 04:15:30;;;;;;;16.67;8.90;;;;;;;21.52;64.05;95231.22;5137515;27;20110;-81
2023/07/04 04:17:55;;;;;;;22.42;10.73;;;;;;;21.28;64.00;95201.63;5133620;27;20195;-81
2023/07/04 04:20:21;;;;;;;14.23;9.88;;;;;;;21.72;63.99;95265.38;5131549;27;20079;-81
2023/07/04 04:22:48;;;;;;;16.35;8.98;;;;;;;21.10;63.85;95176.78;5127538;27;20028;-81
2023/07/04 04:25:15;;;;;;;12.27;8.50;;;;;;;20.97;63.71;95150.97;5148582;27;20041;-81
2023/07/04 04:27:42;;;;;;;17.15;8.50;;;;;;;21.09;64.20;95202.97;5133223;27;20031;-81
2023/07/04 04:30:09;;;;;;;16.20;8.27;;;;;;;21.33;64.02;95231.84;5132885;27;20027;-81
2023/07/04 04:32:36;;;;;;;13.38;8.23;;;;;;;21.51;64.01;95262.06;5129077;27;20122;-81
2023/07/04 04:35:04;;;;;;;16.30;8.05;;;;;;;21.65;63.83;95281.38;5144832;27;20027;-81
2023/07/04 04:37:30;;;;;;;14.73;7.65;;;;;;;21.47;63.98;95274.63;5154438;27;20026;-81
2023/07/04 04:39:55;;;;;;;16.27;8.85;;;;;;;21.13;65.02;95271.25;5118589;27;20402;-81
2023/07/04 04:42:23;;;;;;;16.55;8.73;;;;;;;21.31;64.41;95265.66;5130649;27;20141;-81
2023/07/04 04:44:53;;;;;;;12.05;8.07;;;;;;;21.54;63.51;95264.84;5135525;27;20026;-81
2023/07/04 04:47:23;;;;;;;14.38;8.75;;;;;;;21.41;63.11;95224.75;5154711;27;20034;-81
2023/07/04 04:49:52;;;;;;;16.52;9.07;;;;;;;21.68;63.14;95264.47;5132645;27;20409;-81
2023/07/04 04:52:20;;;;;;;15.88;9.25;;;;;;;21.87;62.68;95283.53;5132226;27;20027;-81
2023/07/04 04:54:47;;;;;;;16.00;8.30;;;;;;;21.73;63.00;95272.34;5153605;27;20087;-81
2023/07/04 04:57:13;;;;;;;14.45;7.93;;;;;;;21.91;62.55;95283.63;5131111;27;20027;-80
2023/07/04 04:59:39;;;;;;;21.80;8.95;;;;;;;21.94;62.22;95274.84;5116844;27;20481;-81
2023/07/04 05:02:04;;;;;;;21.20;8.43;;;;;;;21.93;61.99;95263.28;5125079;27;20118;-81
2023/07/04 05:04:30;;;;;;;28.30;9.18;;;;;;;21.82;62.49;95278.38;5124782;27;20027;-81
2023/07/04 05:06:55;;;;;;;18.13;8.82;;;;;;;21.77;62.18;95262.41;5111561;27;20019;-81
2023/07/04 05:09:20;;;;;;;17.52;9.73;;;;;;;21.90;62.23;95269.34;5115674;27;20032;-81
2023/07/04 05:11:47;;;;;;;17.75;9.20;;;;;;;22.04;61.87;95276.31;5121091;27;20042;-81
2023/07/04 05:14:13;;;;;;;15.57;8.95;;;;;;;22.09;61.54;95284.97;5149030;27;20068;-81
2023/07/04 05:16:39;;;;;;;16.77;8.68;;;;;;;21.84;61.76;95238.31;5146927;27;20078;-81
2023/07/04 05:19:04;;;;;;;16.77;9.00;;;;;;;22.05;61.57;95257.06;5117540;27;20039;-81
2023/07/04 05:21:30;;;;;;;19.70;10.18;;;;;;;22.14;61.83;95265.00;5118032;27;20038;-82
2023/07/04 05:23:55;;;;;;;17.77;9.50;;;;;;;22.24;61.36;95283.44;5101413;27;20028;-80
2023/07/04 05:26:26;;;;;;;15.27;10.00;;;;;;;22.31;61.37;95291.72;5134708;27;20050;-81
2023/07/04 05:28:54;;;;;;;16.58;9.23;;;;;;;22.29;61.24;95275.06;5098381;27;20031;-80
2023/07/04 05:31:23;;;;;;;15.73;9.15;;;;;;;22.17;61.11;95248.13;5094814;27;20031;-80
2023/07/04 05:33:51;;;;;;;16.63;8.85;;;;;;;22.13;61.26;95241.84;5115023;27;20278;-80
2023/07/04 05:36:18;;;;;;;12.38;7.95;;;;;;;22.33;61.13;95260.53;5111426;27;20027;-81
2023/07/04 05:38:46;;;;;;;14.77;8.32;;;;;;;22.46;61.88;95276.69;5124094;27;20024;-81
2023/07/04 05:41:14;;;;;;;15.27;8.40;;;;;;;22.51;62.04;95277.19;5117167;27;20029;-81
2023/07/04 05:43:41;;;;;;;18.73;9.23;;;;;;;22.56;61.85;95289.69;5132164;27;20118;-81
2023/07/04 05:46:08;;;;;;;17.90;9.55;;;;;;;22.55;61.58;95283.50;5112159;27;20087;-82
2023/07/04 05:48:37;;;;;;;12.48;9.00;;;;;;;22.43;61.98;95263.88;5113507;27;20038;-82
2023/07/04 05:51:05;;;;;;;11.25;7.97;;;;;;;22.47;61.50;95259.34;5113733;27;20122;-82
2023/07/04 05:53:33;;;;;;;17.65;8.63;;;;;;;22.64;61.76;95267.91;5130352;27;20027;-82
2023/07/04 05:56:10;;;;;;;14.07;9.02;;;;;;;22.63;61.62;95263.63;5136045;27;20394;-82
2023/07/04 05:58:37;;;;;;;19.38;9.18;;;;;;;22.67;61.61;95255.59;5133554;27;20030;-82
2023/07/04 06:01:10;;;;;;;15.68;9.85;;;;;;;22.81;61.31;95282.25;5119035;27;20054;-81
2023/07/04 06:03:35;;;;;;;12.65;8.10;;;;;;;22.59;61.82;95245.75;5101942;27;20031;-81
2023/07/04 06:06:29;;;;;;;17.13;8.13;;;;;;;22.90;61.51;95270.13;5108540;27;20039;-82
2023/07/04 06:08:56;;;;;;;15.95;8.27;;;;;;;22.96;61.78;95278.78;5127309;27;20032;-82
2023/07/04 06:11:24;;;;;;;19.40;8.40;;;;;;;22.61;61.20;95211.03;5104767;27;20104;-81
2023/07/04 06:13:53;;;;;;;15.00;8.25;;;;;;;23.09;61.50;95267.50;5116815;27;20031;-82
2023/07/04 06:16:19;;;;;;;14.25;7.68;;;;;;;23.06;60.94;95272.81;5109887;27;20088;-82
2023/07/04 06:18:46;;;;;;;13.02;7.95;;;;;;;22.87;60.65;95229.47;5115137;27;20034;-82
2023/07/04 06:21:22;;;;;;;13.88;7.03;;;;;;;22.83;59.99;95232.09;5106712;27;20486;-82
2023/07/04 06:23:49;;;;;;;19.67;8.05;;;;;;;23.12;60.13;95257.09;5107388;27;20460;-81
2023/07/04 06:26:14;;;;;;;20.23;9.02;;;;;;;23.11;60.43;95269.06;5110581;27;20494;-83
2023/07/04 06:28:42;;;;;;;21.33;8.63;;;;;;;22.97;60.28;95254.06;5111942;27;20087;-82
2023/07/04 06:31:13;;;;;;;15.60;8.18;;;;;;;23.15;60.39;95270.72;5126193;27;20114;-82
2023/07/04 06:33:39;;;;;;;15.27;8.05;;;;;;;22.96;60.11;95230.84;5103042;27;20023;-81
2023/07/04 06:36:08;;;;;;;10.70;8.02;;;;;;;23.30;60.41;95269.91;5129834;27;20027;-81
2023/07/04 06:38:33;;;;;;;15.25;8.60;;;;;;;23.26;60.76;95274.47;5123346;27;20035;-82
2023/07/04 06:41:18;;;;;;;16.70;9.15;;;;;;;23.28;60.41;95257.84;5109000;27;20041;-82
2023/07/04 06:43:45;;;;;;;14.05;8.70;;;;;;;23.07;60.33;95226.47;5107571;27;20042;-82
2023/07/04 06:46:18;;;;;;;20.25;9.80;;;;;;;23.39;60.39;95254.28;5131490;27;20035;-81
2023/07/04 06:48:47;;;;;;;17.38;8.23;;;;;;;23.57;60.10;95267.44;5136205;27;20465;-81
2023/07/04 06:51:13;;;;;;;18.00;8.18;;;;;;;23.61;59.62;95265.59;5133256;27;20066;-81
2023/07/04 06:53:40;;;;;;;21.45;8.80;;;;;;;23.52;59.54;95279.31;5120555;27;20637;-83
2023/07/04 06:56:18;;;;;;;13.68;9.18;;;;;;;23.07;59.91;95256.25;5107038;27;20023;-82
2023/07/04 06:58:48;;;;;;;18.02;9.25;;;;;;;23.34;60.16;95273.50;5134130;27;20169;-82
2023/07/04 07:01:14;;;;;;;20.42;8.63;;;;;;;23.21;59.47;95255.78;5116387;27;20035;-82
2023/07/04 07:03:40;;;;;;;17.73;9.15;;;;;;;23.28;59.20;95255.16;5143185;27;20063;-82
2023/07/04 07:06:09;;;;;;;18.73;9.90;;;;;;;23.42;59.59;95263.63;5105651;27;20534;-81
2023/07/04 07:08:35;;;;;;;22.23;10.20;;;;;;;23.39;59.00;95251.56;5115031;27;20616;-82
2023/07/04 07:11:03;;;;;;;21.42;9.73;;;;;;;23.57;58.91;95264.75;5135469;27;20111;-83
2023/07/04 07:13:29;;;;;;;18.38;9.50;;;;;;;23.39;58.78;95253.47;5116998;27;20038;-82
2023/07/04 07:16:11;;;;;;;15.10;8.57;;;;;;;23.61;58.87;95263.66;5114941;27;20031;-82
2023/07/04 07:18:39;;;;;;;17.85;9.50;;;;;;;23.59;59.99;95263.22;5109586;27;20092;-82
2023/07/04 07:21:06;;;;;;;18.92;9.95;;;;;;;23.56;59.30;95257.75;5120865;27;20023;-82
2023/07/04 07:23:34;;;;;;;17.95;8.93;;;;;;;23.83;59.17;95268.41;5116805;27;20023;-82
2023/07/04 07:26:01;;;;;;;20.42;9.55;;;;;;;23.84;58.90;95269.97;5135783;27;20497;-82
2023/07/04 07:28:29;;;;;;;24.50;9.95;;;;;;;23.68;58.92;95265.75;5109229;27;20468;-82
2023/07/04 07:31:18;;;;;;;19.80;9.45;;;;;;;23.71;59.11;95270.47;5117973;27;20031;-82
2023/07/04 07:33:45;;;;;;;22.00;8.93;;;;;;;23.65;59.04;95263.75;5121832;27;20061;-82
2023/07/04 07:36:32;;;;;;;19.55;9.77;;;;;;;23.76;58.63;95270.97;5129116;27;20382;-81
2023/07/04 07:39:02;;;;;;;17.85;9.70;;;;;;;23.67;58.44;95264.16;5117986;27;20041;-82
2023/07/04 07:41:30;;;;;;;14.95;8.82;;;;;;;23.49;57.91;95236.75;5127667;27;20031;-82
2023/07/04 07:43:56;;;;;;;34.97;9.32;;;;;;;23.83;57.75;95248.66;5131070;27;20059;-83
2023/07/04 07:46:23;;;;;;;18.27;9.20;;;;;;;24.02;58.39;95269.56;5126303;27;20514;-82
2023/07/04 07:48:49;;;;;;;22.70;9.18;;;;;;;24.04;57.59;95267.25;5119082;27;20037;-82
2023/07/04 07:51:16;;;;;;;15.38;7.95;;;;;;;23.89;56.92;95247.22;5118480;27;20027;-82
2023/07/04 07:53:44;;;;;;;12.95;8.45;;;;;;;24.05;57.00;95279.66;5116113;27;20463;-83
2023/07/04 07:56:12;;;;;;;21.95;8.43;;;;;;;24.17;56.48;95261.34;5123748;27;20304;-82
2023/07/04 07:58:39;;;;;;;20.45;7.50;;;;;;;24.11;56.79;95275.53;5096811;27;20099;-81
2023/07/04 08:01:21;;;;;;;12.88;7.85;;;;;;;24.13;56.28;95268.63;5118978;27;20032;-81
2023/07/04 08:03:47;;;;;;;14.50;8.25;;;;;;;23.81;56.63;95231.97;5099875;27;20428;-82
2023/07/04 08:06:40;;;;;;;15.15;8.00;;;;;;;24.09;56.45;95275.91;5112027;27;20283;-81
2023/07/04 08:09:09;;;;;;;18.00;7.43;;;;;;;24.16;56.57;95270.63;5101371;27;20034;-81
2023/07/04 08:11:35;;;;;;;20.40;7.65;;;;;;;24.02;56.80;95242.47;5122959;27;20042;-82
2023/07/04 08:14:00;;;;;;;13.90;6.60;;;;;;;24.13;54.63;95246.16;5117518;27;20433;-82
2023/07/04 08:16:47;;;;;;;12.10;7.20;;;;;;;24.45;54.90;95269.25;5114656;27;20027;-82
2023/07/04 08:19:14;;;;;;;20.77;8.48;;;;;;;24.55;55.28;95271.38;5117546;27;20035;-82
2023/07/04 08:21:39;;;;;;;19.90;8.15;;;;;;;24.39;55.32;95215.72;5128322;27;20549;-82
2023/07/04 08:24:10;;;;;;;15.52;7.20;;;;;;;24.61;54.54;95248.25;5111118;27;20061;-81
2023/07/04 08:26:38;;;;;;;7.50;5.45;;;;;;;24.89;53.57;95260.72;5129364;27;20481;-82
2023/07/04 08:29:05;;;;;;;16.33;7.43;;;;;;;24.38;53.41;95200.59;5129119;27;20059;-82
2023/07/04 08:31:31;;;;;;;15.00;7.38;;;;;;;24.59;53.22;95220.72;5112869;27;20038;-80
2023/07/04 08:33:57;;;;;;;13.48;7.45;;;;;;;24.60;54.20;95230.41;5114173;27;20027;-82
2023/07/04 08:36:25;;;;;;;12.75;7.68;;;;;;;24.66;53.40;95217.31;5134489;27;20515;-83
2023/07/04 08:38:51;;;;;;;21.63;7.60;;;;;;;24.92;53.54;95255.41;5143040;27;20464;-83
2023/07/04 08:41:35;;;;;;;13.25;6.63;;;;;;;25.13;53.15;95257.66;5109630;27;20051;-82
2023/07/04 08:44:05;;;;;;;13.70;6.88;;;;;;;24.97;53.20;95254.28;5131893;27;20023;-82
2023/07/04 08:46:39;;;;;;;14.75;6.95;;;;;;;25.13;53.25;95248.72;5127006;27;20027;-82
2023/07/04 08:49:15;;;;;;;16.08;6.88;;;;;;;25.02;52.13;95207.09;5125050;27;20130;-82
2023/07/04 08:51:46;;;;;;;17.33;6.78;;;;;;;25.29;52.55;95246.66;5127704;27;20038;-81
2023/07/04 08:54:12;;;;;;;10.30;6.40;;;;;;;25.25;53.11;95226.84;5096389;27;20019;-83
2023/07/04 08:56:39;;;;;;;13.05;6.63;;;;;;;25.47;52.24;95247.69;5128707;27;20031;-82
2023/07/04 08:59:29;;;;;;;10.18;6.40;;;;;;;25.58;51.81;95239.69;5124491;27;20062;-82
2023/07/04 09:02:29;;;;;;;16.20;7.00;;;;;;;25.58;52.04;95240.50;5108013;27;20031;-82
2023/07/04 09:04:57;;;;;;;13.68;6.82;;;;;;;25.70;51.84;95237.56;5114844;27;20027;-82
2023/07/04 09:07:50;;;;;;;11.18;7.05;;;;;;;25.80;53.03;95238.84;5120880;27;20034;-82
2023/07/04 09:10:26;;;;;;;10.35;6.78;;;;;;;25.63;53.42;95210.28;5102401;27;20039;-82
2023/07/04 09:12:53;;;;;;;11.95;6.80;;;;;;;25.80;52.49;95224.47;5105191;27;20034;-82
2023/07/04 09:15:35;;;;;;;15.68;6.90;;;;;;;25.91;51.15;95241.72;5111289;27;20106;-81
2023/07/04 09:18:05;;;;;;;11.10;6.70;;;;;;;26.02;52.00;95237.94;5109132;27;20112;-82
2023/07/04 09:20:35;;;;;;;11.63;6.77;;;;;;;25.93;50.86;95221.19;5107108;27;20039;-83
2023/07/04 09:23:07;;;;;;;12.80;6.35;;;;;;;26.16;50.46;95233.84;5123475;27;20031;-82
2023/07/04 09:25:33;;;;;;;13.32;6.65;;;;;;;25.79;51.13;95184.88;5090525;27;20035;-82
2023/07/04 09:27:59;;;;;;;8.20;6.15;;;;;;;25.91;50.84;95217.25;5088741;27;20397;-82
2023/07/04 09:30:26;;;;;;;11.40;5.88;;;;;;;25.82;50.58;95189.59;5101975;27;20083;-81
2023/07/04 09:32:51;;;;;;;11.85;6.38;;;;;;;25.83;50.11;95183.00;5120554;27;20043;-82
2023/07/04 09:35:17;;;;;;;12.27;7.57;;;;;;;26.03;51.47;95190.59;5109407;27;20402;-82
2023/07/04 09:37:58;;;;;;;12.40;6.45;;;;;;;26.07;51.39;95205.03;5107685;27;20078;-82
2023/07/04 09:40:48;;;;;;;12.40;6.45;;;;;;;26.32;52.45;95221.63;5119298;27;20046;-82
2023/07/04 09:43:30;;;;;;;10.63;6.90;;;;;;;26.44;51.35;95217.88;5126095;27;20031;-82
2023/07/04 09:46:11;;;;;;;11.98;7.32;;;;;;;26.55;51.13;95216.00;5105189;27;20126;-83
2023/07/04 09:48:37;;;;;;;13.20;6.90;;;;;;;26.99;49.56;95188.06;5129305;27;20041;-81
2023/07/04 09:51:18;;;;;;;11.48;7.40;;;;;;;28.30;48.28;95224.94;5087754;27;20161;-81
2023/07/04 09:53:43;;;;;;;11.30;7.22;;;;;;;28.98;47.11;95187.66;5121064;27;20504;-81
2023/07/04 09:56:11;;;;;;;10.55;6.60;;;;;;;29.93;42.98;95172.22;5126389;27;20035;-81
2023/07/04 09:58:37;;;;;;;7.00;6.13;;;;;;;31.16;40.26;95197.25;5126281;27;20046;-82
2023/07/04 10:01:14;;;;;;;11.85;5.55;;;;;;;31.80;38.67;95202.91;5108123;27;20758;-81
2023/07/04 10:03:41;;;;;;;9.63;5.30;;;;;;;32.22;36.99;95191.81;5112248;27;20041;-81
2023/07/04 10:06:09;;;;;;;11.15;5.43;;;;;;;32.80;36.09;95165.91;5122166;27;20027;-81
2023/07/04 10:08:55;;;;;;;9.57;5.50;;;;;;;33.54;34.55;95205.88;5125241;27;20961;-81
2023/07/04 10:11:26;;;;;;;11.15;6.78;;;;;;;34.18;34.36;95207.38;5121385;27;20030;-80
2023/07/04 10:13:59;;;;;;;8.43;5.78;;;;;;;34.33;33.70;95183.13;5125850;27;20405;-80
2023/07/04 10:16:25;;;;;;;11.65;5.95;;;;;;;34.75;32.72;95195.97;5128646;27;20110;-80
2023/07/04 10:18:50;;;;;;;7.53;5.90;;;;;;;34.89;30.61;95161.78;5102535;27;20079;-80
2023/07/04 10:21:17;;;;;;;8.75;5.97;;;;;;;34.91;31.20;95197.16;5108804;27;20435;-80
2023/07/04 10:23:44;;;;;;;9.45;5.53;;;;;;;34.99;31.02;95188.31;5112147;27;20054;-80
2023/07/04 10:26:12;;;;;;;10.85;5.53;;;;;;;35.63;30.42;95177.66;5096472;28;20104;-81
2023/07/04 10:28:38;;;;;;;6.35;5.53;;;;;;;36.10;30.87;95188.94;5107858;27;20061;-80
2023/07/04 10:31:14;;;;;;;7.60;5.53;;;;;;;36.49;31.42;95185.06;5094962;28;20058;-80
2023/07/04 10:33:50;;;;;;;7.05;6.15;;;;;;;36.60;29.71;95164.19;5118012;27;20031;-80
2023/07/04 10:36:23;;;;;;;7.20;5.28;;;;;;;36.92;29.12;95179.78;5096249;27;20063;-80
2023/07/04 10:38:51;;;;;;;17.88;6.00;;;;;;;36.93;30.40;95175.00;5104102;27;20417;-80
2023/07/04 10:41:26;;;;;;;6.50;5.65;;;;;;;37.25;29.83;95180.28;5117832;27;20036;-80
2023/07/04 10:44:03;;;;;;;6.32;5.43;;;;;;;36.90;28.55;95145.50;5093657;27;20091;-80
2023/07/04 10:46:39;;;;;;;6.00;5.10;;;;;;;37.22;28.73;95170.13;5123603;27;20027;-81
2023/07/04 10:49:09;;;;;;;8.05;5.53;;;;;;;37.11;29.70;95173.22;5102008;27;20031;-81
2023/07/04 10:51:40;;;;;;;6.45;4.90;;;;;;;37.37;29.08;95173.97;5105039;27;20042;-81
2023/07/04 10:54:07;;;;;;;;;;;;;;;37.25;29.14;95166.47;5097820;28;20132;-81
2023/07/04 10:56:36;;;;;;;9.18;5.20;;;;;;;37.24;28.27;95140.03;5090195;27;19943;-81
2023/07/04 10:59:09;;;;;;;8.13;5.22;;;;;;;37.42;28.58;95167.84;5120602;27;20565;-80
2023/07/04 11:01:39;;;;;;;9.45;5.65;;;;;;;37.34;28.59;95143.66;5110191;27;20038;-81
2023/07/04 11:04:12;;;;;;;8.57;5.88;;;;;;;37.22;29.45;95148.00;5106608;28;20463;-81
2023/07/04 11:06:44;;;;;;;8.38;6.13;;;;;;;37.31;28.12;95144.53;5099459;28;20577;-81
2023/07/04 11:09:16;;;;;;;7.80;5.72;;;;;;;37.31;27.95;95148.06;5096543;28;20107;-81
2023/07/04 11:11:48;;;;;;;12.30;6.45;;;;;;;37.41;28.66;95130.34;5096770;28;20481;-81
2023/07/04 11:14:18;;;;;;;11.20;5.63;;;;;;;37.64;29.16;95147.75;5107693;28;20467;-81
2023/07/04 11:16:44;;;;;;;12.45;5.38;;;;;;;37.62;28.45;95145.44;5120676;27;20047;-80
2023/07/04 11:19:19;;;;;;;13.35;5.97;;;;;;;37.51;27.63;95142.28;5147596;27;20109;-79
2023/07/04 11:22:03;;;;;;;10.18;6.07;;;;;;;37.38;27.30;95139.53;5112696;27;20039;-80
2023/07/04 11:24:37;;;;;;;12.23;5.90;;;;;;;37.27;27.88;95130.06;5148545;27;20493;-81
2023/07/04 11:27:29;;;;;;;7.05;5.35;;;;;;;36.91;28.00;95122.97;5125861;28;20645;-79
2023/07/04 11:29:57;;;;;;;8.98;5.75;;;;;;;36.63;28.21;95105.28;5128589;28;20039;-79
2023/07/04 11:32:25;;;;;;;8.60;6.00;;;;;;;35.54;28.25;95082.53;5128623;28;20043;-78
2023/07/04 11:35:14;;;;;;;7.22;5.20;;;;;;;35.06;28.22;95030.28;5128738;28;20042;-78
2023/07/04 11:37:42;;;;;;;10.13;5.45;;;;;;;36.01;28.19;95122.59;5130738;27;20127;-78